Time;durP1;ratioP1;P1;durP2;ratioP2;P2;SDS_P1;SDS_P2;PMS_P1;PMS_P2;Temp;Humidity;BMP_temperature;BMP_pressure;BME280_temperature;BME280_humidity;BME280_pressure;Samples;Min_cycle;Max_cycle;Signal;HPM_P1;HPM_P2
2021/05/02 00:00:30;;;;;;;17.53;14.00;;;8.20;99.90;;;;;;5015479;28;20513;-72
2021/05/02 00:02:57;;;;;;;17.20;13.93;;;8.10;99.90;;;;;;5014399;28;20424;-71
2021/05/02 00:05:26;;;;;;;16.50;13.33;;;8.10;99.90;;;;;;5013991;28;20486;-71
2021/05/02 00:07:53;;;;;;;22.30;13.80;;;7.90;99.90;;;;;;5014248;28;20452;-71
2021/05/02 00:10:20;;;;;;;18.38;13.25;;;7.80;99.90;;;;;;4998087;28;20446;-71
2021/05/02 00:12:48;;;;;;;16.90;13.87;;;7.80;99.90;;;;;;5014090;28;20199;-71
2021/05/02 00:15:17;;;;;;;15.30;13.60;;;7.70;99.90;;;;;;4997869;28;20519;-71
2021/05/02 00:17:45;;;;;;;19.10;13.67;;;7.70;99.90;;;;;;4997869;28;20430;-71
2021/05/02 00:20:14;;;;;;;18.20;13.60;;;7.60;99.90;;;;;;4997993;28;20418;-72
2021/05/02 00:22:44;;;;;;;17.43;13.47;;;7.50;99.90;;;;;;4997648;28;20542;-71
2021/05/02 00:25:13;;;;;;;18.47;13.13;;;7.40;99.90;;;;;;5013132;28;20472;-71
2021/05/02 00:27:40;;;;;;;20.93;12.77;;;7.30;99.90;;;;;;5013932;28;20440;-71
2021/05/02 00:30:07;;;;;;;19.20;13.53;;;7.30;99.90;;;;;;5013925;28;20915;-71
2021/05/02 00:32:35;;;;;;;19.23;13.93;;;7.20;99.90;;;;;;5030422;28;20514;-71
2021/05/02 00:35:02;;;;;;;19.27;13.55;;;7.20;99.90;;;;;;5013440;28;20552;-71
2021/05/02 00:37:29;;;;;;;21.20;14.82;;;7.20;99.90;;;;;;4997092;28;20719;-71
2021/05/02 00:39:58;;;;;;;22.73;14.17;;;7.10;99.90;;;;;;5013704;28;20254;-71
2021/05/02 00:42:31;;;;;;;20.10;14.60;;;7.10;99.90;;;;;;5014875;28;20413;-71
2021/05/02 00:45:08;;;;;;;17.70;13.87;;;7.00;99.90;;;;;;5012990;28;20464;-71
2021/05/02 00:47:42;;;;;;;23.33;15.85;;;7.00;99.90;;;;;;5013109;28;20511;-71
2021/05/02 00:50:11;;;;;;;18.40;14.63;;;7.00;99.90;;;;;;5013525;28;20181;-71
2021/05/02 00:52:50;;;;;;;17.20;13.40;;;7.00;99.90;;;;;;4997049;28;20184;-71
2021/05/02 00:55:38;;;;;;;22.52;15.38;;;7.00;99.90;;;;;;5013267;28;20487;-71
2021/05/02 00:58:08;;;;;;;21.00;14.53;;;7.00;99.90;;;;;;4993791;28;20244;-71
2021/05/02 01:00:38;;;;;;;20.90;15.30;;;6.90;99.90;;;;;;4996840;28;20440;-71
2021/05/02 01:03:07;;;;;;;19.40;14.23;;;7.00;99.90;;;;;;5014134;28;20432;-71
2021/05/02 01:05:46;;;;;;;16.13;13.07;;;6.90;99.90;;;;;;4996851;28;20579;-71
2021/05/02 01:08:13;;;;;;;21.58;14.93;;;6.80;99.90;;;;;;5014254;28;20219;-71
2021/05/02 01:10:39;;;;;;;23.02;16.00;;;6.80;99.90;;;;;;4996658;28;20269;-71
2021/05/02 01:13:07;;;;;;;19.67;13.98;;;6.80;99.90;;;;;;5012976;28;20200;-71
2021/05/02 01:15:34;;;;;;;18.30;14.15;;;6.70;99.90;;;;;;5013182;28;20207;-71
2021/05/02 01:18:06;;;;;;;24.50;14.95;;;6.70;99.90;;;;;;5013223;28;20540;-72
2021/05/02 01:20:36;;;;;;;18.75;14.35;;;6.70;99.90;;;;;;4996691;28;20232;-71
2021/05/02 01:23:10;;;;;;;21.08;15.45;;;6.60;99.90;;;;;;5012983;28;20209;-71
2021/05/02 01:25:37;;;;;;;24.67;16.17;;;6.60;99.90;;;;;;5012810;28;20198;-71
2021/05/02 01:28:04;;;;;;;24.08;14.88;;;6.60;99.90;;;;;;5012867;28;20244;-71
2021/05/02 01:30:33;;;;;;;19.17;14.85;;;6.60;99.90;;;;;;5012655;28;20297;-71
2021/05/02 01:33:00;;;;;;;21.50;15.13;;;6.60;99.90;;;;;;5013710;28;20204;-71
2021/05/02 01:35:26;;;;;;;28.50;15.75;;;6.60;99.90;;;;;;5013675;28;20229;-71
2021/05/02 01:37:53;;;;;;;19.35;14.98;;;6.60;99.90;;;;;;5013502;28;20607;-71
2021/05/02 01:40:20;;;;;;;20.77;15.05;;;6.70;99.90;;;;;;5013736;28;20221;-71
2021/05/02 01:42:47;;;;;;;22.92;15.48;;;6.60;99.90;;;;;;5012259;28;20173;-71
2021/05/02 01:45:14;;;;;;;18.33;13.98;;;6.60;99.90;;;;;;5012611;28;20251;-71
2021/05/02 01:47:47;;;;;;;23.35;15.73;;;6.60;99.90;;;;;;5011934;28;20243;-71
2021/05/02 01:50:14;;;;;;;20.80;15.17;;;6.60;99.90;;;;;;4992362;28;20198;-71
2021/05/02 01:52:52;;;;;;;19.90;14.07;;;6.60;99.90;;;;;;5012181;28;20424;-71
2021/05/02 01:55:24;;;;;;;20.48;15.55;;;6.60;99.90;;;;;;4992999;28;20236;-71
2021/05/02 01:57:53;;;;;;;19.65;13.70;;;6.60;99.90;;;;;;5012712;28;20248;-71
2021/05/02 02:00:30;;;;;;;21.58;15.23;;;6.60;99.90;;;;;;5013248;28;20747;-71
2021/05/02 02:03:02;;;;;;;18.13;13.32;;;6.50;99.90;;;;;;5012191;28;20186;-71
2021/05/02 02:05:30;;;;;;;23.50;15.80;;;6.50;99.90;;;;;;5011855;28;20218;-71
2021/05/02 02:08:00;;;;;;;21.77;14.80;;;6.50;99.90;;;;;;5013315;28;20738;-71
2021/05/02 02:10:27;;;;;;;18.80;13.50;;;6.60;99.90;;;;;;5011007;28;20194;-71
2021/05/02 02:12:54;;;;;;;22.70;16.37;;;6.60;99.90;;;;;;5011840;28;20217;-71
2021/05/02 02:15:20;;;;;;;22.17;15.88;;;6.60;99.90;;;;;;5011935;28;20552;-71
2021/05/02 02:17:59;;;;;;;26.95;15.85;;;6.60;99.90;;;;;;5012038;28;20596;-71
2021/05/02 02:20:28;;;;;;;21.35;15.60;;;6.60;99.90;;;;;;5011652;28;20267;-71
2021/05/02 02:23:01;;;;;;;19.65;15.63;;;6.70;99.90;;;;;;5011687;28;20174;-71
2021/05/02 02:25:39;;;;;;;22.02;16.00;;;6.70;99.90;;;;;;5013383;28;20558;-71
2021/05/02 02:28:10;;;;;;;20.63;15.70;;;6.70;99.90;;;;;;5011609;28;20190;-71
2021/05/02 02:30:39;;;;;;;19.02;15.32;;;6.70;99.90;;;;;;5011810;28;20270;-71
2021/05/02 02:33:07;;;;;;;19.75;14.63;;;6.80;99.90;;;;;;5010537;28;20180;-71
2021/05/02 02:35:45;;;;;;;20.05;14.80;;;6.80;99.90;;;;;;5013310;28;20553;-71
2021/05/02 02:38:14;;;;;;;19.63;15.57;;;6.80;99.90;;;;;;5012494;28;20226;-71
2021/05/02 02:40:41;;;;;;;19.50;14.60;;;6.80;99.90;;;;;;5011524;28;20225;-71
2021/05/02 02:43:10;;;;;;;23.90;16.98;;;6.90;99.90;;;;;;5012134;28;20422;-71
2021/05/02 02:45:38;;;;;;;19.33;16.20;;;6.90;99.90;;;;;;4995426;28;20194;-72
2021/05/02 02:48:06;;;;;;;26.02;18.48;;;7.00;99.90;;;;;;4994964;28;20412;-71
2021/05/02 02:50:33;;;;;;;22.88;17.58;;;7.00;99.90;;;;;;5011512;28;20178;-71
2021/05/02 02:53:04;;;;;;;20.73;15.40;;;7.00;99.90;;;;;;4994811;28;20190;-71
2021/05/02 02:55:36;;;;;;;22.92;16.05;;;7.10;99.90;;;;;;5010973;28;20251;-71
2021/05/02 02:58:04;;;;;;;26.50;17.80;;;7.00;99.90;;;;;;5011306;28;20178;-71
2021/05/02 03:00:36;;;;;;;26.42;18.50;;;7.00;99.90;;;;;;5012491;28;20191;-72
2021/05/02 03:03:12;;;;;;;22.85;16.83;;;7.00;99.90;;;;;;5011046;28;20189;-71
2021/05/02 03:05:39;;;;;;;24.77;18.55;;;7.00;99.90;;;;;;5012019;28;20197;-71
2021/05/02 03:08:09;;;;;;;25.38;19.27;;;6.90;99.90;;;;;;5012390;28;20289;-71
2021/05/02 03:10:39;;;;;;;23.40;17.35;;;6.90;99.90;;;;;;5010626;28;20190;-71
2021/05/02 03:13:06;;;;;;;24.60;17.90;;;6.90;99.90;;;;;;4995015;28;20868;-71
2021/05/02 03:15:32;;;;;;;24.60;18.30;;;7.00;99.90;;;;;;5010799;28;20534;-71
2021/05/02 03:18:07;;;;;;;28.90;19.03;;;7.00;99.90;;;;;;4978198;28;20750;-71
2021/05/02 03:20:38;;;;;;;22.90;17.10;;;7.00;99.90;;;;;;5012038;28;20406;-71
2021/05/02 03:23:12;;;;;;;25.95;18.80;;;7.00;99.90;;;;;;5012049;28;20179;-71
2021/05/02 03:25:48;;;;;;;27.50;19.35;;;7.10;99.90;;;;;;5012162;28;20208;-71
2021/05/02 03:28:21;;;;;;;24.77;17.60;;;7.00;99.90;;;;;;4995188;28;20227;-71
2021/05/02 03:30:47;;;;;;;25.10;18.27;;;7.10;99.90;;;;;;5012420;28;20482;-71
2021/05/02 03:33:18;;;;;;;24.67;17.88;;;7.10;99.90;;;;;;5014746;28;20433;-71
2021/05/02 03:35:45;;;;;;;28.60;18.90;;;7.10;99.90;;;;;;5014866;28;20203;-71
2021/05/02 03:38:34;;;;;;;26.10;18.20;;;7.10;99.90;;;;;;4998613;28;20202;-71
2021/05/02 03:41:01;;;;;;;21.67;16.98;;;7.10;99.90;;;;;;5015912;28;20507;-71
2021/05/02 03:43:27;;;;;;;23.50;17.77;;;7.10;99.90;;;;;;4982119;28;20263;-71
2021/05/02 03:45:54;;;;;;;22.35;17.77;;;7.10;99.90;;;;;;5013947;28;20464;-71
2021/05/02 03:48:20;;;;;;;24.42;18.38;;;7.10;99.90;;;;;;5013642;28;20678;-71
2021/05/02 03:50:46;;;;;;;19.75;16.15;;;7.10;99.90;;;;;;5014782;28;20186;-71
2021/05/02 03:53:12;;;;;;;24.20;16.92;;;7.10;99.90;;;;;;5014424;28;20175;-71
2021/05/02 03:55:43;;;;;;;27.60;17.40;;;7.10;99.90;;;;;;5014651;28;20719;-71
2021/05/02 03:58:11;;;;;;;22.25;16.85;;;7.00;99.90;;;;;;5015041;28;20843;-71
2021/05/02 04:00:38;;;;;;;22.10;16.43;;;7.00;99.90;;;;;;5014152;28;20731;-71
2021/05/02 04:03:05;;;;;;;23.00;16.35;;;7.10;99.90;;;;;;5015186;28;20449;-71
2021/05/02 04:05:31;;;;;;;23.58;16.05;;;7.10;99.90;;;;;;5014294;28;20209;-71
2021/05/02 04:07:57;;;;;;;22.57;16.37;;;7.10;99.90;;;;;;5014225;28;20187;-71
2021/05/02 04:10:23;;;;;;;20.87;15.90;;;7.10;99.90;;;;;;4998025;28;20421;-71
2021/05/02 04:12:50;;;;;;;26.00;16.57;;;7.10;99.90;;;;;;5013740;28;20421;-71
2021/05/02 04:15:16;;;;;;;24.08;16.58;;;7.10;99.90;;;;;;5013920;28;20851;-71
2021/05/02 04:17:43;;;;;;;29.63;16.50;;;7.00;99.90;;;;;;4997941;28;20711;-71
2021/05/02 04:20:10;;;;;;;21.90;15.30;;;7.00;99.90;;;;;;4997810;28;20312;-71
2021/05/02 04:22:38;;;;;;;24.80;15.30;;;7.00;99.90;;;;;;5012038;28;20221;-71
2021/05/02 04:25:05;;;;;;;22.83;15.02;;;7.10;99.90;;;;;;5009071;28;20515;-71
2021/05/02 04:27:31;;;;;;;22.20;15.00;;;7.10;99.90;;;;;;5014265;28;20653;-71
2021/05/02 04:29:58;;;;;;;23.55;15.75;;;7.10;99.90;;;;;;5013919;28;20505;-71
2021/05/02 04:32:25;;;;;;;23.70;16.07;;;7.00;99.90;;;;;;4997541;28;20208;-71
2021/05/02 04:34:52;;;;;;;26.38;14.88;;;7.10;99.90;;;;;;5014756;28;20509;-71
2021/05/02 04:37:18;;;;;;;21.40;15.18;;;7.10;99.90;;;;;;5013800;28;20661;-71
2021/05/02 04:39:45;;;;;;;21.25;14.90;;;7.00;99.90;;;;;;5015091;28;20559;-71
2021/05/02 04:42:14;;;;;;;22.20;15.07;;;7.00;99.90;;;;;;4997279;28;20292;-71
2021/05/02 04:44:40;;;;;;;19.92;14.20;;;7.00;99.90;;;;;;5014821;28;20445;-71
2021/05/02 04:47:06;;;;;;;21.65;15.35;;;7.10;99.90;;;;;;5014194;28;20204;-71
2021/05/02 04:49:33;;;;;;;18.83;13.02;;;7.10;99.90;;;;;;5014812;28;20184;-72
2021/05/02 04:51:59;;;;;;;17.17;12.27;;;7.20;99.90;;;;;;5013678;28;20552;-71
2021/05/02 04:54:25;;;;;;;19.90;13.85;;;7.20;99.90;;;;;;5013343;28;20627;-71
2021/05/02 04:56:51;;;;;;;16.25;12.52;;;7.20;99.90;;;;;;5026395;28;20250;-71
2021/05/02 04:59:18;;;;;;;22.13;12.82;;;7.20;99.90;;;;;;5012742;28;20211;-71
2021/05/02 05:01:44;;;;;;;18.73;13.27;;;7.20;99.90;;;;;;5013239;28;20198;-71
2021/05/02 05:04:10;;;;;;;18.75;12.20;;;7.20;99.90;;;;;;5006267;28;20469;-71
2021/05/02 05:06:36;;;;;;;17.88;11.93;;;7.20;99.90;;;;;;5011577;28;20239;-71
2021/05/02 05:09:05;;;;;;;20.60;13.00;;;7.20;99.90;;;;;;5011068;28;20182;-71
2021/05/02 05:11:32;;;;;;;16.92;12.60;;;7.30;99.90;;;;;;5010568;28;20444;-71
2021/05/02 05:13:59;;;;;;;19.52;12.15;;;7.20;99.90;;;;;;5010986;28;20218;-71
2021/05/02 05:16:25;;;;;;;17.40;11.50;;;7.20;99.90;;;;;;4991369;28;20268;-71
2021/05/02 05:18:51;;;;;;;16.38;12.25;;;7.30;99.90;;;;;;4975433;28;20416;-71
2021/05/02 05:21:19;;;;;;;17.53;12.50;;;7.30;99.90;;;;;;5006464;28;20170;-71
2021/05/02 05:23:45;;;;;;;17.17;12.30;;;7.30;99.90;;;;;;4990993;28;20454;-71
2021/05/02 05:26:12;;;;;;;15.07;11.18;;;7.30;99.90;;;;;;5011284;28;21117;-71
2021/05/02 05:28:38;;;;;;;17.10;11.00;;;7.30;99.90;;;;;;5010809;28;20207;-70
2021/05/02 05:31:04;;;;;;;15.60;11.05;;;7.40;99.90;;;;;;5011130;28;20428;-71
2021/05/02 05:33:31;;;;;;;15.02;9.93;;;7.30;99.90;;;;;;5011718;28;20674;-71
2021/05/02 05:35:58;;;;;;;16.80;10.30;;;7.40;99.90;;;;;;5001004;28;20207;-71
2021/05/02 05:38:24;;;;;;;15.45;10.50;;;7.40;99.90;;;;;;5012114;28;21002;-71
2021/05/02 05:40:50;;;;;;;12.53;8.70;;;7.40;99.90;;;;;;5011512;28;20232;-71
2021/05/02 05:43:16;;;;;;;12.47;8.63;;;7.40;99.90;;;;;;5010886;28;20426;-71
2021/05/02 05:45:44;;;;;;;12.47;9.00;;;7.50;99.90;;;;;;5010856;28;20449;-71
2021/05/02 05:48:10;;;;;;;12.02;8.63;;;7.60;99.90;;;;;;5010546;28;20557;-71
2021/05/02 05:50:36;;;;;;;14.25;10.25;;;7.60;99.90;;;;;;5011606;28;20196;-70
2021/05/02 05:53:03;;;;;;;10.40;8.85;;;7.70;99.90;;;;;;5010257;28;20182;-71
2021/05/02 05:55:29;;;;;;;9.37;7.87;;;7.70;99.90;;;;;;5011414;28;20222;-71
2021/05/02 05:57:57;;;;;;;13.57;9.33;;;7.70;99.90;;;;;;5011382;28;20880;-71
2021/05/02 06:00:23;;;;;;;9.93;7.53;;;7.70;99.90;;;;;;4993940;28;20529;-71
2021/05/02 06:02:50;;;;;;;12.90;8.95;;;7.80;99.90;;;;;;5011476;28;20416;-71
2021/05/02 06:05:17;;;;;;;13.30;8.63;;;7.80;99.90;;;;;;5010717;28;20237;-71
2021/05/02 06:07:44;;;;;;;8.97;7.13;;;7.80;99.90;;;;;;5010484;28;20193;-71
2021/05/02 06:10:11;;;;;;;12.27;8.17;;;7.90;99.90;;;;;;5011569;28;20933;-71
2021/05/02 06:12:37;;;;;;;11.53;7.13;;;8.00;99.90;;;;;;5009982;28;20432;-71
2021/05/02 06:15:05;;;;;;;10.10;7.67;;;8.10;99.90;;;;;;5009803;28;20479;-71
2021/05/02 06:17:31;;;;;;;8.40;6.83;;;8.20;99.90;;;;;;5010971;28;20463;-71
2021/05/02 06:20:00;;;;;;;11.80;6.77;;;8.20;99.90;;;;;;5011512;28;20829;-71
2021/05/02 06:22:26;;;;;;;14.60;7.60;;;8.20;99.90;;;;;;5009288;28;20982;-70
2021/05/02 06:24:52;;;;;;;12.87;7.80;;;8.20;99.90;;;;;;5005576;28;20491;-71
2021/05/02 06:27:18;;;;;;;11.63;6.10;;;8.30;99.90;;;;;;5006055;28;20439;-71
2021/05/02 06:29:45;;;;;;;8.17;5.67;;;8.30;99.90;;;;;;4993416;28;20435;-71
2021/05/02 06:32:11;;;;;;;10.07;6.57;;;8.30;99.90;;;;;;4993390;28;20494;-71
2021/05/02 06:34:37;;;;;;;7.60;5.50;;;8.40;99.90;;;;;;5010853;28;20469;-71
2021/05/02 06:37:03;;;;;;;10.60;6.00;;;8.50;99.90;;;;;;5008818;28;20443;-71
2021/05/02 06:39:30;;;;;;;6.97;5.40;;;8.60;99.90;;;;;;4992894;28;20478;-71
2021/05/02 06:41:56;;;;;;;12.77;5.60;;;8.60;99.90;;;;;;5009312;28;20415;-71
2021/05/02 06:44:23;;;;;;;8.13;5.40;;;8.70;99.90;;;;;;5010617;28;20444;-71
2021/05/02 06:46:49;;;;;;;13.83;6.70;;;8.80;99.90;;;;;;5005166;28;20448;-71
2021/05/02 06:49:16;;;;;;;9.27;6.13;;;8.80;99.90;;;;;;5005335;28;20448;-71
2021/05/02 06:51:42;;;;;;;11.70;6.33;;;8.80;99.90;;;;;;5008608;28;20467;-71
2021/05/02 06:54:09;;;;;;;8.73;5.37;;;8.80;99.90;;;;;;5010578;28;20820;-71
2021/05/02 06:56:37;;;;;;;9.93;6.50;;;9.00;99.90;;;;;;4992376;28;20424;-70
2021/05/02 06:59:04;;;;;;;12.70;6.00;;;9.00;99.90;;;;;;5009137;28;20510;-71
2021/05/02 07:01:31;;;;;;;7.27;5.80;;;9.00;99.90;;;;;;4993110;28;20424;-71
2021/05/02 07:03:58;;;;;;;7.85;5.20;;;9.00;99.90;;;;;;5009243;28;20496;-71
2021/05/02 07:06:27;;;;;;;12.63;5.00;;;8.80;99.90;;;;;;4989711;28;20192;-71
2021/05/02 07:08:53;;;;;;;8.50;5.43;;;8.70;99.90;;;;;;5004171;28;20450;-71
2021/05/02 07:11:21;;;;;;;7.20;4.30;;;8.70;99.90;;;;;;5010206;28;20407;-71
2021/05/02 07:13:48;;;;;;;15.17;5.10;;;8.90;99.90;;;;;;5006268;28;20469;-71
2021/05/02 07:16:17;;;;;;;6.53;4.30;;;9.10;99.90;;;;;;4992994;28;20435;-71
2021/05/02 07:18:44;;;;;;;9.60;5.07;;;9.30;99.90;;;;;;5008517;28;20430;-71
2021/05/02 07:21:11;;;;;;;7.60;5.33;;;9.60;99.90;;;;;;5009800;28;20509;-71
2021/05/02 07:23:43;;;;;;;9.10;5.40;;;9.80;99.90;;;;;;4990610;28;20428;-71
2021/05/02 07:26:11;;;;;;;8.10;5.93;;;9.80;99.90;;;;;;4992755;28;20955;-71
2021/05/02 07:28:38;;;;;;;7.80;5.43;;;9.70;99.90;;;;;;4992828;28;20790;-71
2021/05/02 07:31:04;;;;;;;12.00;5.20;;;9.80;99.90;;;;;;5010119;28;20495;-70
2021/05/02 07:33:30;;;;;;;11.60;4.90;;;9.70;99.90;;;;;;5008922;28;20420;-71
2021/05/02 07:35:59;;;;;;;4.70;4.20;;;9.60;99.90;;;;;;4973173;28;20457;-71
2021/05/02 07:38:27;;;;;;;11.77;5.80;;;9.60;99.90;;;;;;5004240;28;20773;-71
2021/05/02 07:40:56;;;;;;;7.07;4.30;;;9.70;99.90;;;;;;5009577;28;20614;-72
2021/05/02 07:43:24;;;;;;;7.30;5.10;;;9.70;99.90;;;;;;5010312;28;20815;-71
2021/05/02 07:45:51;;;;;;;5.33;4.70;;;9.90;99.90;;;;;;4992350;28;20959;-71
2021/05/02 07:48:20;;;;;;;7.47;5.13;;;10.00;99.90;;;;;;5010052;28;20877;-71
2021/05/02 07:50:46;;;;;;;10.90;4.37;;;10.10;99.90;;;;;;5003621;28;20421;-71
2021/05/02 07:53:12;;;;;;;7.23;4.17;;;10.20;99.90;;;;;;5005227;28;20436;-71
2021/05/02 07:55:39;;;;;;;7.03;4.73;;;10.40;99.70;;;;;;4991819;28;20480;-71
2021/05/02 07:58:05;;;;;;;5.33;4.60;;;10.40;98.30;;;;;;5008219;28;20432;-71
2021/05/02 08:00:31;;;;;;;4.17;3.77;;;10.20;97.80;;;;;;5004888;28;20443;-71
2021/05/02 08:03:00;;;;;;;6.60;5.00;;;10.10;97.90;;;;;;4992253;28;20887;-71
2021/05/02 08:05:26;;;;;;;8.73;4.30;;;10.10;98.30;;;;;;5008310;28;20451;-71
2021/05/02 08:07:53;;;;;;;9.63;4.60;;;10.10;98.40;;;;;;5008402;28;20428;-71
2021/05/02 08:10:20;;;;;;;5.13;3.80;;;10.10;97.80;;;;;;4992407;28;20945;-70
2021/05/02 08:12:47;;;;;;;5.60;3.80;;;10.20;98.10;;;;;;5008151;28;20479;-70
2021/05/02 08:15:13;;;;;;;4.30;3.67;;;10.40;96.40;;;;;;5024411;28;20476;-70
2021/05/02 08:17:39;;;;;;;6.23;4.13;;;10.40;96.00;;;;;;5008769;28;20501;-70
2021/05/02 08:20:07;;;;;;;5.07;4.33;;;10.50;96.80;;;;;;5013375;28;20942;-70
2021/05/02 08:22:35;;;;;;;5.93;4.30;;;10.70;97.40;;;;;;5009373;28;20569;-70
2021/05/02 08:25:06;;;;;;;4.60;3.57;;;10.70;95.80;;;;;;5012786;28;20447;-71
2021/05/02 08:27:32;;;;;;;8.40;4.63;;;10.60;96.20;;;;;;5013252;28;20436;-70
2021/05/02 08:29:59;;;;;;;7.00;4.97;;;10.50;95.60;;;;;;5011970;28;20427;-70
2021/05/02 08:32:25;;;;;;;4.27;3.87;;;10.40;95.40;;;;;;5011915;28;20767;-70
2021/05/02 08:34:52;;;;;;;6.57;4.13;;;10.30;96.10;;;;;;5011777;28;20467;-70
2021/05/02 08:37:19;;;;;;;4.97;4.07;;;10.20;96.00;;;;;;5011753;28;20413;-71
2021/05/02 08:39:45;;;;;;;7.17;3.97;;;10.40;96.90;;;;;;5012252;28;20834;-71
2021/05/02 08:42:11;;;;;;;7.23;6.00;;;10.60;97.40;;;;;;5032518;23;20491;-79
2021/05/02 08:44:37;;;;;;;7.13;4.93;;;10.70;96.30;;;;;;4997078;28;20436;-79
2021/05/02 08:47:09;;;;;;;5.00;4.30;;;10.60;96.30;;;;;;5013702;28;20443;-78
2021/05/02 08:49:37;;;;;;;5.73;5.23;;;10.50;96.20;;;;;;5012405;28;20760;-79
2021/05/02 08:52:03;;;;;;;5.77;4.97;;;10.50;97.00;;;;;;5002536;28;20431;-79
2021/05/02 08:54:29;;;;;;;4.60;4.10;;;10.70;97.50;;;;;;4995115;28;20563;-78
2021/05/02 08:56:57;;;;;;;5.17;3.90;;;11.10;96.00;;;;;;5003890;28;20429;-79
2021/05/02 08:59:29;;;;;;;4.80;4.40;;;11.20;93.60;;;;;;5015267;28;20786;-80
2021/05/02 09:02:02;;;;;;;4.93;4.40;;;11.20;93.00;;;;;;4995265;28;20437;-78
2021/05/02 09:04:30;;;;;;;9.90;5.07;;;11.20;93.00;;;;;;4995144;28;20440;-78
2021/05/02 09:06:56;;;;;;;7.70;4.50;;;11.20;92.40;;;;;;5010897;28;20495;-78
2021/05/02 09:09:25;;;;;;;8.20;3.83;;;11.40;91.20;;;;;;5004165;28;20797;-78
2021/05/02 09:11:54;;;;;;;5.07;4.30;;;11.60;91.10;;;;;;5013012;28;20439;-78
2021/05/02 09:14:35;;;;;;;8.60;4.53;;;12.00;91.20;;;;;;4993394;28;20499;-78
2021/05/02 09:17:16;;;;;;;4.17;3.77;;;12.30;90.10;;;;;;5009186;28;20444;-78
2021/05/02 09:19:52;;;;;;;4.77;3.67;;;12.40;89.60;;;;;;4993658;28;20452;-79
2021/05/02 09:22:19;;;;;;;7.50;4.00;;;12.20;88.20;;;;;;5009895;28;20449;-78
2021/05/02 09:25:04;;;;;;;3.73;3.43;;;12.00;87.10;;;;;;5014002;28;20752;-78
2021/05/02 09:27:32;;;;;;;7.80;4.30;;;11.70;87.30;;;;;;5009380;28;20475;-78
2021/05/02 09:30:19;;;;;;;3.93;3.60;;;11.50;89.80;;;;;;4996022;28;20465;-77
2021/05/02 09:33:01;;;;;;;4.47;3.87;;;11.60;90.90;;;;;;5009062;28;20498;-79
2021/05/02 09:35:31;;;;;;;4.40;3.80;;;11.90;90.40;;;;;;5017748;28;20455;-79
2021/05/02 09:38:13;;;;;;;5.13;3.90;;;12.10;88.90;;;;;;5015198;28;20939;-81
2021/05/02 09:40:51;;;;;;;3.73;2.70;;;12.30;83.60;;;;;;5013195;28;20439;-79
2021/05/02 09:43:44;;;;;;;4.37;3.97;;;12.70;81.10;;;;;;4994732;28;20470;-79
2021/05/02 09:46:24;;;;;;;4.60;3.70;;;13.10;74.70;;;;;;4995502;28;20440;-81
2021/05/02 09:49:02;;;;;;;3.63;3.33;;;13.10;77.80;;;;;;4997409;28;20515;-80
2021/05/02 09:51:31;;;;;;;6.23;3.73;;;13.00;78.80;;;;;;5014169;28;20433;-79
2021/05/02 09:54:01;;;;;;;3.83;3.43;;;12.70;77.60;;;;;;5013687;28;20469;-80
2021/05/02 09:56:39;;;;;;;4.10;3.33;;;12.50;77.70;;;;;;5014270;28;20742;-79
2021/05/02 09:59:18;;;;;;;4.57;4.17;;;12.30;77.80;;;;;;5010999;28;20441;-79
2021/05/02 10:02:11;;;;;;;5.23;4.07;;;12.40;77.70;;;;;;5007554;28;20560;-80
2021/05/02 10:04:47;;;;;;;7.00;4.47;;;12.20;77.30;;;;;;5006660;28;20427;-80
2021/05/02 10:07:18;;;;;;;7.20;4.70;;;12.10;78.80;;;;;;5009792;28;20441;-80
2021/05/02 10:09:48;;;;;;;5.87;3.60;;;12.00;76.90;;;;;;5014144;28;20424;-80
2021/05/02 10:12:19;;;;;;;4.80;3.90;;;12.00;78.20;;;;;;5013371;28;20455;-80
2021/05/02 10:14:50;;;;;;;4.40;4.00;;;11.80;80.40;;;;;;5014886;28;20468;-80
2021/05/02 10:17:16;;;;;;;5.63;3.70;;;11.80;79.20;;;;;;5014681;28;20507;-80
2021/05/02 10:19:45;;;;;;;3.87;3.60;;;11.90;79.80;;;;;;5015077;28;20415;-79
2021/05/02 10:22:17;;;;;;;5.83;3.33;;;12.50;80.00;;;;;;5015122;28;20426;-80
2021/05/02 10:24:44;;;;;;;4.70;3.80;;;13.10;76.80;;;;;;5012283;28;20437;-80
2021/05/02 10:27:14;;;;;;;3.17;2.70;;;13.70;73.70;;;;;;5034202;28;20434;-80
2021/05/02 10:29:51;;;;;;;5.67;3.83;;;13.90;70.40;;;;;;5034205;28;20407;-80
2021/05/02 10:32:22;;;;;;;6.27;3.40;;;13.90;68.80;;;;;;5014154;28;20930;-80
2021/05/02 10:35:04;;;;;;;3.63;3.33;;;13.60;69.10;;;;;;5014836;28;21029;-80
2021/05/02 10:37:36;;;;;;;4.90;3.60;;;13.30;66.90;;;;;;5030030;28;20398;-79
2021/05/02 10:40:31;;;;;;;3.63;3.30;;;13.10;62.40;;;;;;4997020;28;20451;-80
2021/05/02 10:43:05;;;;;;;3.93;3.50;;;13.00;66.20;;;;;;5014556;28;21071;-80
2021/05/02 10:45:33;;;;;;;6.47;4.23;;;12.90;67.40;;;;;;5013562;28;20446;-80
2021/05/02 10:48:16;;;;;;;4.70;3.00;;;12.80;70.20;;;;;;5014749;28;20420;-80
2021/05/02 10:50:51;;;;;;;9.30;3.30;;;12.80;67.30;;;;;;5014596;28;20428;-80
2021/05/02 10:53:24;;;;;;;6.00;3.00;;;12.80;69.00;;;;;;5014667;28;20449;-80
2021/05/02 10:56:03;;;;;;;3.93;3.50;;;12.60;67.00;;;;;;4997836;28;20455;-79
2021/05/02 10:58:29;;;;;;;9.57;2.63;;;12.60;68.20;;;;;;5013355;28;20432;-80
2021/05/02 11:01:02;;;;;;;5.03;4.23;;;12.40;69.70;;;;;;5014613;28;20417;-79
2021/05/02 11:03:42;;;;;;;4.17;3.40;;;12.30;68.50;;;;;;5013861;28;20419;-80
2021/05/02 11:06:09;;;;;;;3.87;2.97;;;12.30;69.10;;;;;;5014178;28;20534;-80
2021/05/02 11:08:59;;;;;;;3.90;3.50;;;12.20;69.80;;;;;;5014316;28;20907;-80
2021/05/02 11:11:29;;;;;;;4.07;3.67;;;12.40;73.90;;;;;;5014465;28;20495;-81
2021/05/02 11:14:10;;;;;;;3.60;3.40;;;13.10;71.50;;;;;;5014605;28;20544;-80
2021/05/02 11:17:11;;;;;;;5.30;3.20;;;13.90;67.40;;;;;;4997512;28;20431;-80
2021/05/02 11:19:42;;;;;;;3.77;3.47;;;14.30;65.50;;;;;;5011550;28;20883;-80
2021/05/02 11:22:09;;;;;;;4.00;3.70;;;14.40;60.90;;;;;;5013034;28;20522;-80
2021/05/02 11:24:38;;;;;;;4.07;3.77;;;14.00;59.90;;;;;;5013253;28;20436;-81
2021/05/02 11:30:12;;;;;;;4.43;3.63;;;13.20;61.10;;;;;;4996677;28;20482;-81
2021/05/02 11:32:43;;;;;;;3.43;3.03;;;13.00;63.50;;;;;;5013127;28;20443;-80
2021/05/02 11:35:37;;;;;;;4.23;3.77;;;12.80;65.50;;;;;;5013924;28;20843;-80
2021/05/02 11:38:14;;;;;;;7.80;4.17;;;12.70;66.40;;;;;;5013433;28;20428;-81
2021/05/02 11:41:12;;;;;;;4.23;3.93;;;12.60;68.80;;;;;;5069231;28;20529;-72
2021/05/02 11:43:40;;;;;;;3.80;3.30;;;12.60;69.60;;;;;;5068113;28;20410;-72
2021/05/02 11:46:17;;;;;;;15.63;5.40;;;12.50;68.20;;;;;;5068081;28;20415;-72
2021/05/02 11:48:45;;;;;;;4.00;3.60;;;12.50;68.20;;;;;;5069097;28;20826;-71
2021/05/02 11:51:16;;;;;;;4.30;3.93;;;12.70;68.40;;;;;;5068003;28;20414;-72
2021/05/02 11:53:54;;;;;;;5.03;3.90;;;12.90;69.90;;;;;;5066717;28;20824;-72
2021/05/02 11:56:32;;;;;;;4.37;3.97;;;13.20;68.20;;;;;;5069017;28;20792;-72
2021/05/02 11:59:07;;;;;;;4.13;2.73;;;13.40;65.40;;;;;;5051005;28;20453;-71
2021/05/02 12:01:34;;;;;;;2.70;2.50;;;13.30;61.40;;;;;;5069018;28;20634;-71
2021/05/02 12:04:06;;;;;;;2.83;2.67;;;13.20;62.00;;;;;;5068851;28;20445;-72
2021/05/02 12:06:35;;;;;;;4.37;3.43;;;13.20;63.20;;;;;;5066741;28;20443;-71
2021/05/02 12:09:11;;;;;;;3.83;2.80;;;13.10;62.20;;;;;;5051009;28;20463;-72
2021/05/02 12:11:40;;;;;;;2.63;2.50;;;12.80;63.20;;;;;;5067600;28;20910;-72
2021/05/02 12:14:06;;;;;;;4.03;3.20;;;12.70;64.10;;;;;;5067662;28;20948;-71
2021/05/02 12:16:32;;;;;;;3.60;3.30;;;12.40;66.30;;;;;;5034731;28;20430;-72
2021/05/02 12:19:03;;;;;;;8.50;3.50;;;12.40;65.60;;;;;;5067590;28;20476;-72
2021/05/02 12:21:41;;;;;;;3.50;3.20;;;12.30;64.40;;;;;;5067251;28;20425;-72
2021/05/02 12:24:23;;;;;;;4.17;3.37;;;12.20;65.70;;;;;;5067101;28;20454;-72
2021/05/02 12:27:05;;;;;;;2.90;2.70;;;12.20;67.10;;;;;;5068878;28;20418;-72
2021/05/02 12:29:36;;;;;;;2.80;2.60;;;12.20;68.50;;;;;;5034050;28;20480;-72
2021/05/02 12:32:08;;;;;;;3.70;3.50;;;12.20;69.10;;;;;;5068190;28;20521;-71
2021/05/02 12:34:42;;;;;;;3.60;3.40;;;12.30;67.80;;;;;;5066417;28;20453;-71
2021/05/02 12:37:10;;;;;;;3.63;3.33;;;12.30;69.20;;;;;;5067142;28;20417;-72
2021/05/02 12:39:38;;;;;;;7.23;4.03;;;12.40;68.20;;;;;;5052096;28;20478;-72
2021/05/02 12:42:05;;;;;;;3.80;3.43;;;12.60;66.70;;;;;;5066712;28;20854;-72
2021/05/02 12:44:34;;;;;;;4.37;3.50;;;13.00;69.30;;;;;;5066713;28;20448;-72
2021/05/02 12:47:30;;;;;;;4.20;3.90;;;13.80;70.90;;;;;;5053380;28;20536;-69
2021/05/02 12:50:00;;;;;;;4.63;3.60;;;14.60;62.90;;;;;;5048517;28;20436;-69
2021/05/02 12:52:32;;;;;;;3.77;3.47;;;14.90;63.20;;;;;;5033876;28;20521;-69
2021/05/02 12:55:27;;;;;;;4.17;3.57;;;14.80;61.10;;;;;;5034549;28;20440;-70
2021/05/02 12:57:56;;;;;;;3.60;3.30;;;14.50;60.00;;;;;;5033351;28;20974;-72
2021/05/02 13:00:32;;;;;;;3.60;3.30;;;14.10;62.50;;;;;;5036678;28;20466;-72